Time;durP1;ratioP1;P1;durP2;ratioP2;P2;SDS_P1;SDS_P2;PMS_P1;PMS_P2;Temp;Humidity;BMP_temperature;BMP_pressure;BME280_temperature;BME280_humidity;BME280_pressure;Samples;Min_cycle;Max_cycle;Signal;HPM_P1;HPM_P2
2022/10/14 15:26:32;;;;;;;1999.90;999.90;;;19.10;99.90;;;;;;5106562;27;20962;-68
2022/10/14 15:29:15;;;;;;;1999.90;999.90;;;;;;;;;;5135321;28;20463;-61
2022/10/14 15:32:02;;;;;;;1999.90;999.90;;;;;;;;;;4912505;28;20072;-61
2022/10/14 15:36:00;;;;;;;1999.90;999.90;;;;;;;;;;5131637;28;20443;-61
2022/10/14 15:38:32;;;;;;;1999.90;999.90;;;;;;;;;;5667377;23;20123;-63
2022/10/14 15:41:04;;;;;;;1999.90;999.90;;;;;;;;;;5181896;28;20033;-63
2022/10/14 15:43:38;;;;;;;1999.90;999.90;;;;;;;;;;5191692;28;20030;-62
2022/10/14 15:49:03;;;;;;;1999.90;999.90;;;;;;;;;;5185533;28;20026;-62
2022/10/14 15:51:34;;;;;;;1999.90;999.90;;;;;;;;;;5194834;28;20044;-61
2022/10/14 15:54:05;;;;;;;1999.90;999.90;;;;;;;;;;5182478;28;20136;-62
2022/10/14 15:56:38;;;;;;;1999.90;999.90;;;21.70;99.90;;;;;;5182769;28;20478;-63
2022/10/14 15:59:08;;;;;;;1999.90;999.90;;;22.00;99.90;;;;;;5192131;28;20072;-62
2022/10/14 16:03:36;;;;;;;1999.90;999.90;;;22.40;99.90;;;;;;4914789;28;20418;-63
2022/10/14 16:07:01;;;;;;;1999.90;999.90;;;22.50;99.90;;;;;;4917861;28;20496;-63
2022/10/14 16:09:31;;;;;;;1999.90;999.90;;;22.50;99.90;;;;;;5187582;28;20034;-63
2022/10/14 16:12:02;;;;;;;1999.90;999.90;;;22.60;99.90;;;;;;5177454;28;20037;-63
2022/10/14 16:14:33;;;;;;;1999.90;999.90;;;22.70;99.90;;;;;;5177774;28;20108;-62
2022/10/14 16:17:04;;;;;;;1999.90;999.90;;;22.70;99.90;;;;;;5177183;28;20037;-63
2022/10/14 16:19:35;;;;;;;1999.90;999.90;;;22.80;99.90;;;;;;5177485;28;20032;-63
2022/10/14 16:22:06;;;;;;;1999.90;999.90;;;22.90;99.90;;;;;;5177237;28;20092;-62
2022/10/14 16:24:36;;;;;;;1999.90;999.90;;;23.00;99.90;;;;;;5177484;28;20161;-62
2022/10/14 16:27:07;;;;;;;1999.90;999.90;;;23.00;99.90;;;;;;5192687;28;20038;-62
2022/10/14 16:29:38;;;;;;;1999.90;999.90;;;23.00;99.90;;;;;;5177860;28;20022;-62
2022/10/14 16:32:11;;;;;;;1999.90;999.90;;;23.20;99.90;;;;;;5176901;28;20101;-63
2022/10/14 16:34:42;;;;;;;1999.90;999.90;;;23.30;99.90;;;;;;5176702;28;20089;-62
2022/10/14 16:37:12;;;;;;;1999.90;999.90;;;23.60;99.90;;;;;;5177252;28;20552;-60
2022/10/14 16:39:43;;;;;;;1999.90;999.90;;;23.50;99.90;;;;;;5177627;28;20100;-60
2022/10/14 16:42:15;;;;;;;1999.90;999.90;;;23.70;99.90;;;;;;5176495;28;20042;-60
2022/10/14 16:44:46;;;;;;;1999.90;999.90;;;23.80;99.90;;;;;;5177646;28;20090;-60
2022/10/14 16:47:18;;;;;;;1999.90;999.90;;;23.80;99.90;;;;;;5176516;28;20468;-59
2022/10/14 16:49:50;;;;;;;1999.90;999.90;;;23.90;99.90;;;;;;5176178;28;20038;-60
2022/10/14 16:52:21;;;;;;;1999.90;999.90;;;23.60;99.90;;;;;;5175925;28;20545;-60
2022/10/14 16:54:52;;;;;;;1999.90;999.90;;;23.70;99.90;;;;;;5176115;28;20022;-60
2022/10/14 16:57:23;;;;;;;1999.90;999.90;;;23.60;99.90;;;;;;5176219;28;20109;-61
2022/10/14 16:59:55;;;;;;;1999.90;999.90;;;23.50;99.90;;;;;;5176509;28;20026;-62
2022/10/14 17:02:30;;;;;;;1999.90;999.90;;;23.40;99.90;;;;;;5176270;28;20057;-63
2022/10/14 17:05:12;;;;;;;1999.90;999.90;;;23.20;99.90;;;;;;5175538;28;20057;-62
2022/10/14 17:07:43;;;;;;;1999.90;999.90;;;23.10;99.90;;;;;;5190836;28;20062;-60
2022/10/14 17:10:15;;;;;;;1999.90;999.90;;;23.10;99.90;;;;;;5176059;28;20188;-61
2022/10/14 17:12:46;;;;;;;1999.90;999.90;;;23.00;99.90;;;;;;5176048;28;20025;-62
2022/10/14 17:15:17;;;;;;;1999.90;999.90;;;23.00;99.90;;;;;;5173745;28;20097;-61
2022/10/14 17:17:48;;;;;;;1999.90;999.90;;;22.90;99.90;;;;;;5165514;28;20764;-61
2022/10/14 17:20:20;;;;;;;1999.90;999.90;;;22.90;99.90;;;;;;5162247;28;20033;-60
